Time;durP1;ratioP1;P1;durP2;ratioP2;P2;SDS_P1;SDS_P2;PMS_P1;PMS_P2;Temp;Humidity;BMP_temperature;BMP_pressure;BME280_temperature;BME280_humidity;BME280_pressure;Samples;Min_cycle;Max_cycle;Signal;HPM_P1;HPM_P2
2023/11/06 05:30:54;;;;;;;0.10;0.10;;;9.40;86.70;;;;;;5760321;22;20046;-81
2023/11/06 05:33:19;;;;;;;0.10;0.10;;;9.50;86.60;;;;;;4997153;28;20046;-81
2023/11/06 05:35:45;;;;;;;0.10;0.10;;;9.50;86.50;;;;;;5001861;28;20466;-81
2023/11/06 05:38:11;;;;;;;0.10;0.10;;;9.40;86.40;;;;;;4993120;28;20035;-81
2023/11/06 05:40:36;;;;;;;0.10;0.10;;;9.40;86.50;;;;;;4991784;28;20381;-81
2023/11/06 05:43:03;;;;;;;0.10;0.10;;;9.30;86.50;;;;;;5016558;28;20088;-81
2023/11/06 05:45:28;;;;;;;0.10;0.10;;;9.30;86.50;;;;;;4999359;28;20111;-81
2023/11/06 05:47:55;;;;;;;0.10;0.10;;;9.30;86.60;;;;;;4998875;28;20027;-82
2023/11/06 05:50:20;;;;;;;0.00;0.00;;;9.30;86.50;;;;;;4994787;28;20038;-79
2023/11/06 05:52:46;;;;;;;0.10;0.10;;;9.30;86.50;;;;;;4970549;28;20023;-80
2023/11/06 05:55:12;;;;;;;0.17;0.10;;;9.30;86.30;;;;;;4977698;28;20035;-78
2023/11/06 05:57:38;;;;;;;0.10;0.10;;;9.30;86.30;;;;;;4990297;28;20019;-83
2023/11/06 06:00:06;;;;;;;0.10;0.10;;;9.30;86.60;;;;;;4978918;28;20129;-85
2023/11/06 06:02:32;;;;;;;0.10;0.10;;;9.20;86.70;;;;;;4981921;28;20030;-86
2023/11/06 06:04:57;;;;;;;0.10;0.10;;;9.30;86.40;;;;;;4980961;28;20039;-85
2023/11/06 06:07:23;;;;;;;0.10;0.10;;;9.20;86.40;;;;;;5008671;28;20037;-90
2023/11/06 06:09:48;;;;;;;0.10;0.10;;;9.30;86.50;;;;;;4964076;28;20050;-82
2023/11/06 06:12:14;;;;;;;0.10;0.10;;;9.20;86.60;;;;;;4991166;28;20037;-84
2023/11/06 06:14:40;;;;;;;0.10;0.10;;;9.20;86.50;;;;;;5000727;28;20030;-80
2023/11/06 06:17:06;;;;;;;0.10;0.10;;;9.20;86.60;;;;;;4989705;28;20014;-86
2023/11/06 06:19:32;;;;;;;0.10;0.10;;;9.30;86.50;;;;;;4982804;28;20048;-80
2023/11/06 06:21:57;;;;;;;0.10;0.10;;;9.30;86.30;;;;;;5000814;28;20031;-81
2023/11/06 06:24:25;;;;;;;0.10;0.10;;;9.20;86.50;;;;;;4969822;28;20548;-81
2023/11/06 06:26:50;;;;;;;0.10;0.10;;;9.20;86.50;;;;;;4980999;28;20106;-81
2023/11/06 06:29:16;;;;;;;0.10;0.10;;;9.20;86.60;;;;;;4980948;28;20058;-82
2023/11/06 06:31:41;;;;;;;0.10;0.10;;;9.20;86.50;;;;;;4980377;28;20046;-82
2023/11/06 06:34:07;;;;;;;0.10;0.10;;;9.10;86.50;;;;;;4974758;28;20041;-83
2023/11/06 06:36:33;;;;;;;0.10;0.10;;;9.10;86.40;;;;;;4990855;28;20062;-82
2023/11/06 06:38:58;;;;;;;0.10;0.10;;;9.00;86.70;;;;;;4997016;28;20117;-84
2023/11/06 06:41:24;;;;;;;0.10;0.10;;;9.10;86.50;;;;;;4965998;28;20124;-83
2023/11/06 06:43:49;;;;;;;0.10;0.10;;;9.20;86.40;;;;;;4963325;28;20151;-84
2023/11/06 06:46:15;;;;;;;0.10;0.10;;;9.20;86.40;;;;;;4974526;28;20063;-78
2023/11/06 06:48:41;;;;;;;0.10;0.10;;;9.10;86.30;;;;;;4980168;28;20027;-78
2023/11/06 06:51:07;;;;;;;0.10;0.10;;;9.20;86.30;;;;;;4985199;28;20022;-79
2023/11/06 06:53:34;;;;;;;0.10;0.10;;;9.10;86.30;;;;;;4998929;28;20034;-77
2023/11/06 06:56:00;;;;;;;0.10;0.10;;;9.20;86.20;;;;;;4998086;28;20082;-79
2023/11/06 06:58:26;;;;;;;0.08;0.08;;;9.20;86.30;;;;;;4997949;28;20389;-79
2023/11/06 07:00:52;;;;;;;0.10;0.10;;;9.10;86.30;;;;;;4998645;28;20022;-79
2023/11/06 07:03:18;;;;;;;0.10;0.10;;;9.10;86.50;;;;;;4981702;28;20501;-79
2023/11/06 07:05:44;;;;;;;0.10;0.10;;;9.10;86.10;;;;;;4980268;28;20402;-79
2023/11/06 07:08:10;;;;;;;0.10;0.10;;;9.20;86.40;;;;;;4980198;28;20114;-79
2023/11/06 07:10:35;;;;;;;0.10;0.10;;;9.20;86.40;;;;;;4969211;28;20034;-79
2023/11/06 07:13:03;;;;;;;0.10;0.10;;;9.20;86.20;;;;;;4980270;28;20054;-79
2023/11/06 07:15:29;;;;;;;0.10;0.10;;;9.20;86.20;;;;;;4961786;28;20082;-79
2023/11/06 07:17:56;;;;;;;0.10;0.10;;;9.20;86.20;;;;;;4995823;28;20030;-79
2023/11/06 07:20:23;;;;;;;0.10;0.10;;;9.20;86.20;;;;;;4984472;28;20099;-79
2023/11/06 07:22:49;;;;;;;0.10;0.10;;;9.30;85.90;;;;;;4999424;28;20396;-79
2023/11/06 07:25:16;;;;;;;0.10;0.10;;;9.20;85.90;;;;;;4980278;28;20026;-79
2023/11/06 07:27:43;;;;;;;0.10;0.10;;;9.30;85.90;;;;;;4982735;28;20027;-78
2023/11/06 07:30:10;;;;;;;0.10;0.10;;;9.30;85.90;;;;;;4998425;28;20037;-79
2023/11/06 07:32:35;;;;;;;0.10;0.10;;;9.30;85.80;;;;;;4999308;28;20030;-79
2023/11/06 07:35:01;;;;;;;0.10;0.10;;;9.30;85.50;;;;;;4999346;28;20509;-78
2023/11/06 07:37:28;;;;;;;0.10;0.10;;;9.30;85.60;;;;;;4998409;28;20497;-78
2023/11/06 07:39:53;;;;;;;0.10;0.10;;;9.30;85.60;;;;;;5001941;28;20017;-78
2023/11/06 07:42:19;;;;;;;0.10;0.10;;;9.40;85.60;;;;;;5001141;28;20527;-79
2023/11/06 07:44:44;;;;;;;0.10;0.10;;;9.40;85.40;;;;;;4984048;28;20081;-79
2023/11/06 07:47:12;;;;;;;0.10;0.10;;;9.50;85.60;;;;;;4981619;28;20117;-78
2023/11/06 07:49:38;;;;;;;0.10;0.10;;;9.60;85.40;;;;;;4998922;28;20026;-79
2023/11/06 07:52:09;;;;;;;0.10;0.10;;;9.70;85.50;;;;;;4998183;28;20520;-78
2023/11/06 07:54:38;;;;;;;0.10;0.10;;;9.70;85.30;;;;;;4981378;28;20031;-78
2023/11/06 07:57:04;;;;;;;0.10;0.10;;;9.70;85.20;;;;;;4998797;28;20033;-79
2023/11/06 07:59:29;;;;;;;0.17;0.17;;;9.70;85.10;;;;;;4998581;28;20034;-79
2023/11/06 08:01:55;;;;;;;0.10;0.10;;;9.80;85.10;;;;;;4997300;28;20053;-79
2023/11/06 08:04:20;;;;;;;0.10;0.10;;;9.90;85.10;;;;;;4998068;28;20035;-79
2023/11/06 08:06:46;;;;;;;0.10;0.10;;;10.00;85.00;;;;;;4998346;28;20022;-79
2023/11/06 08:09:11;;;;;;;0.10;0.10;;;10.20;84.80;;;;;;4998462;28;20050;-79
2023/11/06 08:11:37;;;;;;;0.10;0.10;;;10.10;84.40;;;;;;4986027;28;20058;-79
2023/11/06 08:14:03;;;;;;;0.10;0.10;;;10.10;84.60;;;;;;4967070;28;20373;-78
2023/11/06 08:16:32;;;;;;;0.10;0.10;;;10.10;84.60;;;;;;4996072;28;20169;-79
2023/11/06 08:18:58;;;;;;;0.10;0.10;;;10.10;84.60;;;;;;4977268;28;20038;-79
2023/11/06 08:21:24;;;;;;;0.10;0.10;;;10.10;84.60;;;;;;4994559;28;20080;-79
2023/11/06 08:23:50;;;;;;;0.10;0.10;;;10.10;84.70;;;;;;4997603;28;20034;-79
2023/11/06 08:26:15;;;;;;;0.10;0.10;;;10.10;84.50;;;;;;4995288;28;20030;-79
2023/11/06 08:28:41;;;;;;;0.10;0.10;;;10.30;84.40;;;;;;4978985;28;20030;-79
2023/11/06 08:31:09;;;;;;;0.10;0.10;;;10.40;84.30;;;;;;4982955;28;20519;-79
2023/11/06 08:33:35;;;;;;;0.10;0.10;;;10.40;83.90;;;;;;4999924;28;20030;-79
2023/11/06 08:36:01;;;;;;;0.10;0.10;;;10.50;84.10;;;;;;4981760;28;20146;-79
2023/11/06 08:38:26;;;;;;;0.10;0.10;;;10.60;83.90;;;;;;4989645;28;20050;-79
2023/11/06 08:40:54;;;;;;;0.10;0.10;;;10.70;84.00;;;;;;4981069;28;20033;-79
2023/11/06 08:43:19;;;;;;;0.10;0.10;;;10.80;83.90;;;;;;4993191;28;20026;-79
2023/11/06 08:45:45;;;;;;;0.10;0.10;;;10.90;83.70;;;;;;4980434;28;20033;-79
2023/11/06 08:48:12;;;;;;;0.10;0.10;;;11.00;83.40;;;;;;4997730;28;20031;-79
2023/11/06 08:50:38;;;;;;;0.10;0.10;;;11.10;83.30;;;;;;4993965;28;20093;-79
2023/11/06 08:53:04;;;;;;;0.10;0.10;;;11.10;83.10;;;;;;4977825;28;20031;-79
2023/11/06 08:55:29;;;;;;;0.10;0.10;;;11.10;83.00;;;;;;4994466;28;20437;-79
2023/11/06 08:57:55;;;;;;;0.10;0.10;;;11.10;83.00;;;;;;4991257;28;20030;-79
2023/11/06 09:00:20;;;;;;;0.10;0.10;;;11.10;82.90;;;;;;4979872;28;20026;-79
2023/11/06 09:02:49;;;;;;;0.10;0.10;;;11.20;82.90;;;;;;4978500;28;20065;-79
2023/11/06 09:05:16;;;;;;;0.10;0.10;;;11.20;82.90;;;;;;4978094;28;20033;-79
2023/11/06 09:07:43;;;;;;;0.10;0.10;;;11.30;82.60;;;;;;4986796;28;20031;-79
2023/11/06 09:10:09;;;;;;;0.10;0.10;;;11.50;82.40;;;;;;4995471;28;20027;-79
2023/11/06 09:12:35;;;;;;;0.10;0.10;;;11.70;82.50;;;;;;4996019;28;20144;-79
2023/11/06 09:15:00;;;;;;;0.10;0.10;;;11.90;82.10;;;;;;4997582;28;20519;-79
2023/11/06 09:17:26;;;;;;;0.10;0.10;;;11.90;81.50;;;;;;4991013;28;20038;-80
2023/11/06 09:19:52;;;;;;;0.00;0.00;;;11.80;81.60;;;;;;4997178;28;20113;-79
2023/11/06 09:22:18;;;;;;;0.10;0.10;;;11.80;81.50;;;;;;4992951;28;20042;-79
2023/11/06 09:24:44;;;;;;;0.10;0.10;;;11.80;81.50;;;;;;4982472;28;20042;-79
2023/11/06 09:27:09;;;;;;;0.10;0.10;;;11.70;81.40;;;;;;4996586;28;20531;-79
2023/11/06 09:29:35;;;;;;;0.10;0.10;;;11.80;81.60;;;;;;4996591;28;20105;-79
2023/11/06 09:32:01;;;;;;;0.10;0.10;;;11.80;81.40;;;;;;4997038;28;20445;-79
2023/11/06 09:34:26;;;;;;;0.10;0.10;;;12.00;81.50;;;;;;4995148;28;20033;-79
2023/11/06 09:36:52;;;;;;;0.10;0.10;;;12.00;81.30;;;;;;4996040;28;20033;-79
2023/11/06 09:39:18;;;;;;;0.10;0.10;;;11.90;81.30;;;;;;4978709;28;20061;-80
2023/11/06 09:41:43;;;;;;;0.10;0.10;;;12.10;81.30;;;;;;4995486;28;20108;-79
2023/11/06 09:44:09;;;;;;;0.10;0.10;;;12.20;81.10;;;;;;4977719;28;20392;-79
2023/11/06 09:46:35;;;;;;;0.10;0.10;;;12.30;80.90;;;;;;4975453;28;20034;-79
2023/11/06 09:49:14;;;;;;;0.10;0.10;;;12.30;80.60;;;;;;4996967;28;20029;-78
2023/11/06 09:51:41;;;;;;;0.20;0.20;;;12.20;80.50;;;;;;4982085;28;20235;-79
2023/11/06 09:54:10;;;;;;;0.10;0.10;;;12.20;80.40;;;;;;4971869;28;20027;-79
2023/11/06 09:56:45;;;;;;;0.10;0.10;;;12.30;80.30;;;;;;4964598;28;20029;-79
2023/11/06 09:59:11;;;;;;;0.10;0.10;;;12.50;80.40;;;;;;4959611;28;20598;-79
2023/11/06 10:01:37;;;;;;;0.10;0.10;;;12.70;79.30;;;;;;4977578;28;20034;-78
2023/11/06 10:04:04;;;;;;;0.10;0.10;;;13.00;79.50;;;;;;4984975;28;20030;-79
2023/11/06 10:06:31;;;;;;;0.10;0.10;;;13.20;78.90;;;;;;4986843;28;20102;-78
2023/11/06 10:08:57;;;;;;;0.10;0.10;;;13.40;78.00;;;;;;4996956;28;20022;-79
2023/11/06 10:11:24;;;;;;;0.10;0.10;;;13.60;77.40;;;;;;4996459;28;20018;-79
2023/11/06 10:13:54;;;;;;;0.10;0.10;;;13.70;76.50;;;;;;4989285;28;20086;-79
2023/11/06 10:16:22;;;;;;;0.10;0.10;;;13.70;76.30;;;;;;4993399;28;20093;-79
2023/11/06 10:19:20;;;;;;;0.10;0.10;;;13.70;76.10;;;;;;4987705;28;20018;-79
2023/11/06 10:21:46;;;;;;;0.10;0.10;;;13.80;76.60;;;;;;4965316;28;20113;-79
2023/11/06 10:24:13;;;;;;;0.10;0.10;;;13.60;76.10;;;;;;4986724;28;20030;-79
2023/11/06 10:26:39;;;;;;;0.10;0.10;;;13.60;76.60;;;;;;4970531;28;20433;-79
2023/11/06 10:29:11;;;;;;;0.10;0.10;;;13.50;76.80;;;;;;4978234;28;20081;-78
2023/11/06 10:31:41;;;;;;;0.10;0.10;;;13.20;76.70;;;;;;4977140;28;20042;-79
2023/11/06 10:34:37;;;;;;;0.00;0.00;;;13.10;77.00;;;;;;4977140;28;20780;-79
2023/11/06 10:37:10;;;;;;;0.10;0.10;;;13.10;77.60;;;;;;4976925;28;20051;-79
2023/11/06 10:39:52;;;;;;;0.10;0.10;;;13.20;77.60;;;;;;4982614;28;20109;-79
2023/11/06 10:42:21;;;;;;;0.10;0.10;;;13.20;77.10;;;;;;4987397;28;20031;-79
2023/11/06 10:45:00;;;;;;;0.10;0.10;;;13.30;77.50;;;;;;4993814;28;20054;-79
2023/11/06 10:47:31;;;;;;;0.10;0.10;;;13.30;77.50;;;;;;4995663;28;20034;-79
2023/11/06 10:50:11;;;;;;;0.10;0.10;;;13.40;77.40;;;;;;4981573;28;20031;-79
2023/11/06 10:52:39;;;;;;;0.10;0.10;;;13.60;77.60;;;;;;4998964;28;20113;-79
2023/11/06 10:55:06;;;;;;;0.10;0.10;;;13.70;76.90;;;;;;4998713;28;20030;-78
2023/11/06 10:57:33;;;;;;;0.10;0.10;;;13.70;76.30;;;;;;4963087;28;20022;-79
2023/11/06 11:00:07;;;;;;;0.10;0.10;;;13.60;76.60;;;;;;4973043;28;20473;-79
2023/11/06 11:02:44;;;;;;;0.10;0.10;;;13.70;76.70;;;;;;4980407;28;20098;-79
2023/11/06 11:05:12;;;;;;;0.10;0.10;;;13.80;76.30;;;;;;4973073;28;20030;-79
2023/11/06 11:07:42;;;;;;;0.10;0.10;;;13.80;75.80;;;;;;4980316;28;20023;-79
2023/11/06 11:10:10;;;;;;;0.00;0.00;;;13.80;75.80;;;;;;4992069;28;20030;-79
2023/11/06 11:12:36;;;;;;;0.10;0.10;;;13.70;75.80;;;;;;4998466;28;20388;-79
2023/11/06 11:15:04;;;;;;;0.10;0.10;;;13.60;76.10;;;;;;4998663;28;20113;-79
2023/11/06 11:17:30;;;;;;;0.10;0.10;;;13.60;75.70;;;;;;4972146;28;20082;-78
2023/11/06 11:20:04;;;;;;;0.00;0.00;;;13.70;76.00;;;;;;4995062;28;20035;-83
2023/11/06 11:22:32;;;;;;;0.10;0.10;;;13.70;76.30;;;;;;4994633;28;20033;-82
2023/11/06 11:24:59;;;;;;;0.10;0.10;;;13.70;76.20;;;;;;4986851;28;20436;-82
2023/11/06 11:27:27;;;;;;;0.00;0.00;;;13.60;76.50;;;;;;4996475;28;20030;-83
2023/11/06 11:29:53;;;;;;;0.00;0.00;;;13.50;76.70;;;;;;4979775;28;20569;-83
2023/11/06 11:32:30;;;;;;;0.10;0.10;;;13.30;77.10;;;;;;4979876;28;20082;-82
2023/11/06 11:35:20;;;;;;;0.10;0.10;;;13.20;76.90;;;;;;4979996;28;20477;-83
2023/11/06 11:37:57;;;;;;;0.00;0.00;;;13.10;77.70;;;;;;4962822;28;20040;-82
2023/11/06 11:40:36;;;;;;;0.10;0.10;;;13.00;77.90;;;;;;5005696;28;20029;-82
2023/11/06 11:43:23;;;;;;;0.05;0.05;;;12.90;78.30;;;;;;4992014;28;20033;-82
2023/11/06 11:45:49;;;;;;;0.05;0.05;;;12.90;78.50;;;;;;4981497;28;20093;-82
2023/11/06 11:48:15;;;;;;;0.10;0.10;;;12.80;78.60;;;;;;4981943;28;20453;-82
2023/11/06 11:50:41;;;;;;;0.00;0.00;;;12.80;78.80;;;;;;4998067;28;20026;-82
2023/11/06 11:53:09;;;;;;;0.10;0.10;;;12.80;78.80;;;;;;4998815;28;20474;-82
2023/11/06 11:55:38;;;;;;;0.00;0.00;;;12.90;78.70;;;;;;4982521;28;20118;-82
2023/11/06 11:58:08;;;;;;;0.10;0.10;;;12.90;78.70;;;;;;4979751;28;20015;-82
2023/11/06 12:00:36;;;;;;;0.00;0.00;;;12.90;78.80;;;;;;4978997;28;20027;-82
2023/11/06 12:03:12;;;;;;;0.10;0.10;;;13.00;78.90;;;;;;4988278;28;20077;-83
2023/11/06 12:05:40;;;;;;;0.10;0.10;;;13.00;79.20;;;;;;4992506;28;20113;-82
2023/11/06 12:08:23;;;;;;;0.00;0.00;;;13.00;79.10;;;;;;4997128;28;20041;-82
2023/11/06 12:10:50;;;;;;;0.10;0.10;;;13.10;79.10;;;;;;4996322;28;20094;-84
2023/11/06 12:13:25;;;;;;;0.00;0.00;;;13.10;79.10;;;;;;4974560;28;20114;-84
2023/11/06 12:15:54;;;;;;;0.10;0.10;;;13.00;79.30;;;;;;4979506;28;20026;-85
2023/11/06 12:18:23;;;;;;;0.00;0.00;;;13.00;79.60;;;;;;4998167;28;20022;-83
2023/11/06 12:20:56;;;;;;;0.08;0.08;;;13.00;79.40;;;;;;4991038;28;20054;-89
2023/11/06 12:23:31;;;;;;;0.10;0.10;;;13.00;79.70;;;;;;4996620;28;20685;-88
2023/11/06 12:26:05;;;;;;;0.10;0.10;;;13.10;80.00;;;;;;4968401;28;20515;-87
2023/11/06 12:28:32;;;;;;;0.00;0.00;;;13.10;79.80;;;;;;4973849;28;20101;-86
2023/11/06 12:30:57;;;;;;;0.10;0.10;;;13.20;79.60;;;;;;4973855;28;20133;-86
2023/11/06 12:33:23;;;;;;;0.10;0.10;;;13.20;79.60;;;;;;4979595;28;20046;-86
2023/11/06 12:35:53;;;;;;;0.10;0.10;;;13.30;79.30;;;;;;4979482;28;20485;-87
2023/11/06 12:38:51;;;;;;;0.10;0.10;;;13.30;79.00;;;;;;4978064;28;20114;-86
2023/11/06 12:41:30;;;;;;;0.10;0.10;;;13.40;79.10;;;;;;4962201;28;20041;-89
2023/11/06 12:43:56;;;;;;;0.10;0.10;;;13.50;79.20;;;;;;4996137;28;20461;-88
2023/11/06 12:46:21;;;;;;;0.10;0.10;;;13.70;78.60;;;;;;4996590;28;20026;-85
2023/11/06 12:48:51;;;;;;;0.10;0.10;;;13.80;78.50;;;;;;4978745;28;20065;-89
2023/11/06 12:51:18;;;;;;;0.10;0.10;;;13.90;77.80;;;;;;4994568;28;20026;-85
2023/11/06 12:53:49;;;;;;;0.10;0.10;;;14.10;77.60;;;;;;4995754;28;20473;-85
2023/11/06 12:56:15;;;;;;;0.10;0.10;;;14.00;77.50;;;;;;4978854;28;20022;-85
2023/11/06 12:58:42;;;;;;;0.10;0.10;;;13.90;77.50;;;;;;4995922;28;20034;-85
2023/11/06 13:01:20;;;;;;;0.10;0.10;;;13.90;77.00;;;;;;4975821;28;20037;-85
2023/11/06 13:03:47;;;;;;;0.10;0.10;;;13.90;76.90;;;;;;4978646;28;20581;-85
2023/11/06 13:06:15;;;;;;;0.10;0.10;;;14.00;76.50;;;;;;4995511;28;20034;-86
2023/11/06 13:08:41;;;;;;;0.10;0.10;;;14.20;76.50;;;;;;4978628;28;20089;-88
2023/11/06 13:11:08;;;;;;;0.10;0.10;;;14.20;75.90;;;;;;4995624;28;20027;-84
2023/11/06 13:13:35;;;;;;;0.10;0.10;;;14.30;76.00;;;;;;4993886;28;20038;-85
2023/11/06 13:16:03;;;;;;;0.10;0.10;;;14.30;75.80;;;;;;4979049;28;20401;-85
2023/11/06 13:18:31;;;;;;;0.10;0.10;;;14.60;75.50;;;;;;4976446;28;20088;-86
2023/11/06 13:21:19;;;;;;;0.00;0.00;;;14.80;75.10;;;;;;4996278;28;20026;-84
2023/11/06 13:23:46;;;;;;;0.10;0.10;;;14.90;74.50;;;;;;4992685;28;21862;-85
2023/11/06 13:26:13;;;;;;;0.10;0.10;;;14.90;74.60;;;;;;4993828;28;20033;-85
2023/11/06 13:28:39;;;;;;;0.10;0.10;;;14.80;74.30;;;;;;4977789;28;20666;-85
2023/11/06 13:31:07;;;;;;;0.10;0.10;;;14.60;74.10;;;;;;4994975;28;20043;-86
2023/11/06 13:33:33;;;;;;;0.10;0.10;;;14.50;74.30;;;;;;4975057;28;20393;-86
2023/11/06 13:36:00;;;;;;;0.05;0.05;;;14.60;74.40;;;;;;4977672;28;20026;-85
2023/11/06 13:38:25;;;;;;;0.10;0.10;;;14.70;74.10;;;;;;4995185;28;20046;-86
2023/11/06 13:40:51;;;;;;;0.10;0.10;;;14.60;74.20;;;;;;4993470;28;20092;-85
2023/11/06 13:43:18;;;;;;;0.10;0.10;;;14.50;74.30;;;;;;4978307;28;20034;-85
2023/11/06 13:45:45;;;;;;;0.10;0.10;;;14.40;74.40;;;;;;4995199;28;20029;-85
2023/11/06 13:48:11;;;;;;;0.10;0.10;;;14.30;74.60;;;;;;4978487;28;20045;-85
2023/11/06 13:50:51;;;;;;;0.10;0.10;;;14.20;75.00;;;;;;4995085;28;20019;-85
2023/11/06 13:53:24;;;;;;;0.10;0.10;;;14.30;75.20;;;;;;4977668;28;20037;-86
2023/11/06 13:55:51;;;;;;;;;;;14.40;74.90;;;;;;4973930;28;20019;-85
2023/11/06 13:58:18;;;;;;;0.10;0.10;;;14.60;74.70;;;;;;4974079;28;19928;-84
2023/11/06 14:00:59;;;;;;;0.05;0.05;;;14.60;74.80;;;;;;4993034;28;20038;-84
2023/11/06 14:03:25;;;;;;;0.10;0.10;;;14.50;75.00;;;;;;4995330;28;20033;-83
2023/11/06 14:05:52;;;;;;;0.10;0.10;;;14.50;74.50;;;;;;4994565;28;20034;-84
2023/11/06 14:08:20;;;;;;;0.00;0.00;;;14.50;74.70;;;;;;4995225;28;20057;-84
2023/11/06 14:10:49;;;;;;;0.08;0.08;;;14.30;75.00;;;;;;4995385;28;20544;-85
2023/11/06 14:13:23;;;;;;;0.00;0.00;;;14.30;75.10;;;;;;4976581;28;20023;-84
2023/11/06 14:15:53;;;;;;;0.10;0.10;;;14.00;75.40;;;;;;4995306;28;20038;-84
2023/11/06 14:18:19;;;;;;;0.10;0.10;;;13.90;76.10;;;;;;4995124;28;20038;-85
2023/11/06 14:20:51;;;;;;;0.00;0.00;;;13.90;76.40;;;;;;4977600;28;20022;-85
2023/11/06 14:23:24;;;;;;;0.10;0.10;;;13.90;76.40;;;;;;4990429;28;20440;-84
2023/11/06 14:25:51;;;;;;;;;;;13.80;76.90;;;;;;4978050;28;20022;-85
2023/11/06 14:28:17;;;;;;;0.00;0.00;;;13.80;77.20;;;;;;4975488;28;19910;-84
2023/11/06 14:30:50;;;;;;;0.00;0.00;;;13.80;77.30;;;;;;4981327;28;20046;-84
2023/11/06 14:33:19;;;;;;;0.00;0.00;;;13.80;77.00;;;;;;4980819;28;20041;-83
2023/11/06 14:35:46;;;;;;;0.10;0.10;;;13.80;77.50;;;;;;4994222;28;20038;-84
2023/11/06 14:38:11;;;;;;;0.10;0.10;;;13.70;77.60;;;;;;4977549;28;20037;-84
2023/11/06 14:40:51;;;;;;;0.10;0.10;;;13.70;77.70;;;;;;4982362;28;20023;-84
2023/11/06 14:43:18;;;;;;;0.00;0.00;;;13.70;77.80;;;;;;4975010;28;20381;-84
2023/11/06 14:45:45;;;;;;;0.05;0.05;;;13.70;78.00;;;;;;4981454;28;20041;-87
2023/11/06 14:48:14;;;;;;;0.00;0.00;;;13.70;78.10;;;;;;4974331;28;20488;-87
2023/11/06 14:50:43;;;;;;;0.10;0.10;;;13.70;77.80;;;;;;4977273;28;20050;-85
2023/11/06 14:53:12;;;;;;;0.10;0.10;;;13.70;77.90;;;;;;4974466;28;20034;-87
2023/11/06 14:55:38;;;;;;;0.00;0.00;;;13.70;78.00;;;;;;4980945;28;20035;-82
2023/11/06 14:58:05;;;;;;;0.10;0.10;;;13.70;78.00;;;;;;4977198;28;20473;-81
2023/11/06 15:00:37;;;;;;;0.10;0.10;;;13.70;78.30;;;;;;4991862;28;20849;-81
2023/11/06 15:03:03;;;;;;;0.10;0.10;;;13.70;78.30;;;;;;4995077;28;20458;-80
2023/11/06 15:05:34;;;;;;;0.10;0.10;;;13.70;78.50;;;;;;4993377;28;20037;-81
2023/11/06 15:08:02;;;;;;;0.10;0.10;;;13.70;78.40;;;;;;4981860;28;20045;-80
2023/11/06 15:10:28;;;;;;;0.00;0.00;;;13.70;78.60;;;;;;4992873;28;20397;-80
2023/11/06 15:12:55;;;;;;;0.10;0.10;;;13.70;78.60;;;;;;4977420;28;20041;-80
2023/11/06 15:15:21;;;;;;;0.10;0.10;;;13.60;78.60;;;;;;4968820;28;20035;-85
2023/11/06 15:18:00;;;;;;;0.10;0.10;;;13.60;78.60;;;;;;4973191;28;20050;-80
2023/11/06 15:20:29;;;;;;;0.10;0.10;;;13.60;78.90;;;;;;4994706;28;20396;-80
2023/11/06 15:22:55;;;;;;;0.03;0.03;;;13.60;78.90;;;;;;4993890;28;20066;-81
2023/11/06 15:25:21;;;;;;;0.00;0.00;;;13.60;78.90;;;;;;4990384;28;20034;-81
2023/11/06 15:27:52;;;;;;;0.10;0.10;;;13.50;79.00;;;;;;4970812;28;20038;-81
2023/11/06 15:30:20;;;;;;;0.10;0.10;;;13.50;79.10;;;;;;4985129;28;20025;-81
2023/11/06 15:32:48;;;;;;;0.10;0.10;;;13.40;79.40;;;;;;4994120;28;20034;-81
2023/11/06 15:35:14;;;;;;;0.00;0.00;;;13.50;79.50;;;;;;4974119;28;20030;-81
2023/11/06 15:37:44;;;;;;;0.00;0.00;;;13.50;79.50;;;;;;4989376;28;20030;-81
2023/11/06 15:40:15;;;;;;;0.00;0.00;;;13.40;79.50;;;;;;4981590;28;20406;-80
2023/11/06 15:42:41;;;;;;;0.08;0.08;;;13.40;79.80;;;;;;4992922;28;20149;-80
2023/11/06 15:45:11;;;;;;;0.10;0.10;;;13.40;79.60;;;;;;4994206;28;20026;-80
2023/11/06 15:47:37;;;;;;;0.10;0.10;;;13.30;78.30;;;;;;4991375;28;20031;-81
2023/11/06 15:50:06;;;;;;;0.10;0.10;;;13.20;78.70;;;;;;4987587;28;20023;-81
2023/11/06 15:52:34;;;;;;;0.08;0.08;;;13.10;79.00;;;;;;4975420;28;20037;-81
2023/11/06 15:55:03;;;;;;;0.10;0.10;;;13.00;79.60;;;;;;4989544;28;20010;-81
2023/11/06 15:57:29;;;;;;;0.10;0.10;;;12.80;80.40;;;;;;4971155;28;20549;-81
2023/11/06 15:59:54;;;;;;;0.00;0.00;;;12.80;80.50;;;;;;4986727;28;20062;-81
2023/11/06 16:02:20;;;;;;;0.10;0.10;;;12.70;80.80;;;;;;4990647;28;20036;-81
2023/11/06 16:04:47;;;;;;;0.10;0.10;;;12.60;80.40;;;;;;4988459;28;20104;-81
2023/11/06 16:07:17;;;;;;;0.00;0.00;;;12.60;81.30;;;;;;4971492;28;20042;-81
2023/11/06 16:09:44;;;;;;;0.00;0.00;;;12.60;80.90;;;;;;4987763;28;20023;-81
2023/11/06 16:12:11;;;;;;;0.00;0.00;;;12.50;81.00;;;;;;4985529;28;20022;-81
2023/11/06 16:14:37;;;;;;;0.10;0.10;;;12.50;81.20;;;;;;4997061;28;20405;-85
2023/11/06 16:17:04;;;;;;;0.03;0.03;;;12.40;81.20;;;;;;4979529;28;20124;-81
2023/11/06 16:19:30;;;;;;;0.10;0.10;;;12.40;81.60;;;;;;4974216;28;20077;-81
2023/11/06 16:21:56;;;;;;;0.10;0.10;;;12.30;81.70;;;;;;4970728;28;20027;-80
2023/11/06 16:24:22;;;;;;;0.00;0.00;;;12.30;81.90;;;;;;4987717;28;20052;-81
2023/11/06 16:26:48;;;;;;;0.10;0.10;;;12.20;81.70;;;;;;4986019;28;20022;-81
2023/11/06 16:29:14;;;;;;;0.10;0.10;;;12.20;82.00;;;;;;4989907;28;20205;-80
2023/11/06 16:31:44;;;;;;;0.00;0.00;;;12.20;82.10;;;;;;4996637;28;20086;-81
2023/11/06 16:34:12;;;;;;;0.00;0.00;;;12.10;82.20;;;;;;4997150;28;20015;-82
2023/11/06 16:36:39;;;;;;;0.10;0.10;;;12.00;82.10;;;;;;4996965;28;20445;-80
2023/11/06 16:39:07;;;;;;;0.10;0.10;;;12.00;82.10;;;;;;4976184;28;20058;-80
2023/11/06 16:41:36;;;;;;;0.00;0.00;;;11.90;82.40;;;;;;4996007;28;20061;-80
2023/11/06 16:44:03;;;;;;;0.10;0.10;;;11.80;82.60;;;;;;4996093;28;20500;-80
2023/11/06 16:46:30;;;;;;;0.05;0.05;;;11.80;82.60;;;;;;4992220;28;20090;-80
2023/11/06 16:48:55;;;;;;;0.10;0.10;;;11.80;82.80;;;;;;4989780;28;20035;-83
2023/11/06 16:51:21;;;;;;;0.03;0.03;;;11.90;83.00;;;;;;4982578;28;20141;-80
2023/11/06 16:53:47;;;;;;;0.00;0.00;;;11.80;83.00;;;;;;4966112;28;20097;-79
2023/11/06 16:56:14;;;;;;;0.10;0.10;;;11.80;83.30;;;;;;4995180;28;20038;-77
2023/11/06 16:58:41;;;;;;;0.10;0.10;;;11.80;83.30;;;;;;4995595;28;20049;-78
2023/11/06 17:01:08;;;;;;;0.00;0.00;;;11.80;83.60;;;;;;4979036;28;20558;-77
2023/11/06 17:03:34;;;;;;;0.00;0.00;;;11.90;83.50;;;;;;4987974;28;20018;-77
2023/11/06 17:06:02;;;;;;;0.00;0.00;;;11.90;83.80;;;;;;4992825;28;20485;-78
2023/11/06 17:08:28;;;;;;;0.00;0.00;;;11.90;83.80;;;;;;4988475;28;20031;-77
2023/11/06 17:10:55;;;;;;;0.10;0.10;;;11.90;83.80;;;;;;4968388;28;20029;-78
2023/11/06 17:13:20;;;;;;;0.10;0.10;;;11.80;83.70;;;;;;4983637;28;20624;-77
2023/11/06 17:15:46;;;;;;;0.10;0.10;;;11.80;83.60;;;;;;4988010;28;20058;-78
2023/11/06 17:18:13;;;;;;;0.10;0.10;;;11.80;83.70;;;;;;4987787;28;20482;-78
2023/11/06 17:20:40;;;;;;;0.10;0.10;;;11.80;83.70;;;;;;4987822;28;20041;-78
2023/11/06 17:23:06;;;;;;;0.05;0.05;;;11.80;83.70;;;;;;4985685;28;20026;-78
2023/11/06 17:25:31;;;;;;;0.00;0.00;;;11.70;83.90;;;;;;4986821;28;20105;-78
2023/11/06 17:27:57;;;;;;;0.10;0.10;;;11.70;84.10;;;;;;4986441;28;20442;-78
2023/11/06 17:30:24;;;;;;;0.10;0.10;;;11.70;84.20;;;;;;4970200;28;20049;-78
2023/11/06 17:32:51;;;;;;;0.10;0.10;;;11.70;84.20;;;;;;4967514;28;20134;-76
2023/11/06 17:35:17;;;;;;;0.10;0.10;;;11.70;84.10;;;;;;4986171;28;20085;-78
2023/11/06 17:37:42;;;;;;;0.10;0.10;;;11.70;84.20;;;;;;4970670;28;20030;-78
2023/11/06 17:40:09;;;;;;;0.10;0.10;;;11.70;84.30;;;;;;4996005;28;20077;-76
2023/11/06 17:42:35;;;;;;;0.10;0.10;;;11.60;84.40;;;;;;4976601;28;20570;-76
2023/11/06 17:45:01;;;;;;;0.10;0.10;;;11.60;84.30;;;;;;4987746;28;20034;-76
2023/11/06 17:47:29;;;;;;;0.10;0.10;;;11.60;84.30;;;;;;4992278;28;20055;-76
2023/11/06 17:49:55;;;;;;;0.10;0.10;;;11.50;84.20;;;;;;4985114;28;20030;-76
2023/11/06 17:52:21;;;;;;;0.10;0.10;;;11.60;84.60;;;;;;4985248;28;20034;-76
2023/11/06 17:54:47;;;;;;;0.10;0.10;;;11.50;84.50;;;;;;4983941;28;20026;-76
2023/11/06 17:57:13;;;;;;;0.10;0.10;;;11.50;84.50;;;;;;4991826;28;20035;-77
2023/11/06 17:59:40;;;;;;;0.10;0.10;;;11.50;84.50;;;;;;4983964;28;20050;-77
2023/11/06 18:02:06;;;;;;;0.10;0.10;;;11.50;84.60;;;;;;4990357;28;20027;-76
2023/11/06 18:04:31;;;;;;;0.10;0.10;;;11.50;84.60;;;;;;4993204;28;20025;-76
2023/11/06 18:06:58;;;;;;;0.10;0.10;;;11.50;84.70;;;;;;4971195;28;20807;-76
2023/11/06 18:09:27;;;;;;;0.10;0.10;;;11.50;84.60;;;;;;4974982;28;20026;-76
2023/11/06 18:11:52;;;;;;;0.10;0.10;;;11.50;84.60;;;;;;4995759;28;20481;-78
2023/11/06 18:14:18;;;;;;;0.00;0.00;;;11.50;84.50;;;;;;4998218;28;20031;-76
2023/11/06 18:16:44;;;;;;;0.10;0.10;;;11.50;84.50;;;;;;4999692;28;20045;-76
2023/11/06 18:19:10;;;;;;;0.10;0.10;;;11.50;84.60;;;;;;4999334;28;20033;-78
2023/11/06 18:21:37;;;;;;;0.10;0.10;;;11.50;84.60;;;;;;4999239;28;20126;-78
2023/11/06 18:24:04;;;;;;;0.10;0.10;;;11.50;84.50;;;;;;4998002;28;20038;-78